Airfield :
LOGIN :

Register | Disclaimer

   EN    FR    IT 

 










Legend :    VFR   Marginal VFR   IFR   Intensive IFR   Very Intensive IFR
Visi :
Ceiling :
>= 8 km
>= 3000ft
5 to 8 km
1000 to 3000 ft
1500m to 5 km
500 to 1000 ft
800 to 1500m
200 to 500 ft
< 800m
< 200 ft
Symbols :   Thunderstorms  Fog  Heavy snow  Heavy precipitations  Wind > 20 kt
SIGMETs :     Misc.  Thunderstorms  Icing  Turbulence  Mountain Waves  Volcanic Ashes







- Airport Elevation : 502 ft
- IATA code : ORK


EICK - Cork

CURRENT METAR :
  • 141430Z 29022KT 9999 FEW008 SCT018CB 04/03 Q0991 NOSIG

EXPIRED METARs :
  • 141400Z 28020KT 9999 -SHRA FEW011 BKN018CB 04/03 Q0990 NOSIG
  • 141330Z 28018G32KT 9999 -SHRA SCT010 BKN016CB 04/03 Q0990 NOSIG
  • 141300Z 26014KT 9999 -SHRA FEW010 BKN018CB 05/03 Q0990 NOSIG
  • 141230Z 26015KT 9999 FEW010 SCT018CB BKN030 04/02 Q0991 NOSIG
  • 141200Z 28016KT 9000 -SHRA FEW008 SCT018CB BKN080 05/02 Q0991 NOSIG

TAF TAF EICK
Valid from the 14 at 12:00 until the 15 at 12:00 UTC


141100Z 1412/1512 26020G30KT 9999 FEW015 BKN025
BECMG 1412/1414 31023G36KT
TEMPO 1412/1421 5000 -SHRA SCT012 SCT018CB
PROB30
TEMPO 1412/1414 3000 SHRAGS BKN018CB
BECMG 1414/1416 29015KT
TEMPO 1416/1421 29015G25KT
BECMG 1421/1424 33017G28KT
TEMPO 1502/1508 32020G33KT
No reported NOTAMs for that airfield.
2 SIGMETs reported for the Shannon FIR (EISN) :
 
Severe turbulence
EISN SIGMET 10 VALID 141400/141700 EINN
EISN SHANNON FIR SEV TURB FCST WI N5140 W00930 - N5140 W00643 - N5100 W00800 - N5100 W00930 - N5140 W00930 SFC/FL060 STNR NC=
Severe turbulence
EISN SIGMET 09 VALID 141300/141700 EINN
EISN SHANNON FIR SEV TURB FCST WI N5432 W01000 - N5140 W01000 - N5140 W00930 - N5100 W00930 - N5100 W01500 - N5400 W01500 - N5432 W01000 SFC/FL060 STNR NC=



MET'MAP, your aeronautical weather chart ! - Copyright ORBIFLY December 2007 - Disclaimer

ORBIFLY MET'MAP TEAM :

Programming & Development : Alexandra Zaïnal
Concept & Development : Baudouin d'Aumeries
Co-Development & Prog : Marc-Olivier Méhu
Technical & hardware support : Manuel Goepfert

Contact : metmap@orbifly.com




SOURCES & CREDITS :

   NOAA